createdAt,value
2023-05-06T00:02:01.759Z,24.33
2023-05-06T00:04:28.392Z,28.40
2023-05-06T00:06:56.718Z,29.15
2023-05-06T00:09:24.345Z,26.15
2023-05-06T00:11:51.547Z,24.63
2023-05-06T00:14:17.995Z,21.23
2023-05-06T00:16:44.708Z,22.50
2023-05-06T00:19:11.544Z,22.40
2023-05-06T00:21:38.844Z,24.77
2023-05-06T00:24:09.985Z,26.67
2023-05-06T00:26:36.448Z,22.70
2023-05-06T00:29:03.225Z,31.33
2023-05-06T00:31:29.823Z,25.60
2023-05-06T00:33:56.382Z,27.17
2023-05-06T00:36:23.278Z,25.65
2023-05-06T00:38:49.742Z,28.60
2023-05-06T00:41:16.317Z,23.17
2023-05-06T00:43:42.796Z,25.83
2023-05-06T00:46:10.031Z,27.10
2023-05-06T00:48:36.812Z,27.67
2023-05-06T00:51:03.665Z,30.25
2023-05-06T00:53:30.398Z,27.42
2023-05-06T00:55:57.499Z,29.38
2023-05-06T00:58:24.164Z,28.13
2023-05-06T01:00:52.356Z,25.80
2023-05-06T01:03:19.176Z,28.00
2023-05-06T01:05:54.802Z,25.00
2023-05-06T01:08:35.003Z,32.03
2023-05-06T01:11:07.415Z,24.27
2023-05-06T01:13:34.123Z,25.25
2023-05-06T01:16:01.445Z,25.58
2023-05-06T01:18:31.410Z,25.13
2023-05-06T01:20:59.345Z,22.83
2023-05-06T01:23:26.953Z,24.05
2023-05-06T01:25:53.458Z,27.67
2023-05-06T01:28:21.141Z,27.13
2023-05-06T01:31:03.724Z,28.33
2023-05-06T01:33:46.818Z,27.67
2023-05-06T01:36:21.568Z,24.90
2023-05-06T01:38:54.860Z,23.33
2023-05-06T01:41:22.967Z,23.73
2023-05-06T01:43:50.133Z,21.60
2023-05-06T01:46:20.405Z,23.00
2023-05-06T01:48:48.906Z,20.25
2023-05-06T01:51:15.877Z,23.08
2023-05-06T01:53:42.485Z,25.27
2023-05-06T01:56:08.950Z,24.13
2023-05-06T01:58:36.069Z,20.75
2023-05-06T02:01:02.497Z,20.23
2023-05-06T02:03:29.083Z,16.10
2023-05-06T02:05:55.810Z,24.88
2023-05-06T02:08:23.745Z,19.63
2023-05-06T02:10:50.358Z,16.55
2023-05-06T02:13:18.287Z,19.50
2023-05-06T02:15:45.235Z,18.08
2023-05-06T02:18:16.462Z,19.40
2023-05-06T02:20:43.013Z,21.38
2023-05-06T02:23:14.375Z,21.75
2023-05-06T02:25:41.029Z,20.02
2023-05-06T02:28:07.453Z,23.08
2023-05-06T02:30:48.734Z,22.33
2023-05-06T02:33:15.202Z,23.55
2023-05-06T02:35:41.726Z,28.17
2023-05-06T02:38:08.603Z,25.95
2023-05-06T02:40:35.240Z,30.92
2023-05-06T02:43:07.713Z,26.60
2023-05-06T02:45:34.203Z,33.08
2023-05-06T02:48:04.063Z,29.83
2023-05-06T02:50:30.640Z,31.17
2023-05-06T02:52:57.221Z,34.65
2023-05-06T02:55:24.048Z,33.33
2023-05-06T02:57:50.591Z,31.88
2023-05-06T03:00:17.385Z,37.72
2023-05-06T03:02:44.484Z,40.17
2023-05-06T03:05:11.483Z,44.95
2023-05-06T03:07:38.560Z,46.83
2023-05-06T03:10:05.696Z,48.10
2023-05-06T03:12:41.081Z,47.90
2023-05-06T03:15:13.160Z,52.42
2023-05-06T03:17:39.930Z,54.38
2023-05-06T03:20:08.638Z,48.55
2023-05-06T03:22:37.804Z,49.33
2023-05-06T03:25:04.510Z,42.80
2023-05-06T03:27:32.842Z,48.58
2023-05-06T03:30:04.182Z,47.03
2023-05-06T03:32:30.953Z,50.47
2023-05-06T03:34:58.755Z,46.17
2023-05-06T03:37:25.395Z,42.35
2023-05-06T03:39:54.937Z,48.03
2023-05-06T03:42:25.396Z,45.58
2023-05-06T03:44:52.101Z,48.72
2023-05-06T03:47:18.873Z,44.88
2023-05-06T03:49:45.711Z,47.33
2023-05-06T03:52:12.790Z,46.42
2023-05-06T03:54:39.273Z,48.92
2023-05-06T03:57:07.257Z,49.67
2023-05-06T03:59:33.979Z,48.67
2023-05-06T04:02:02.590Z,50.28
2023-05-06T04:04:29.835Z,50.03
2023-05-06T04:06:56.470Z,51.33
2023-05-06T04:09:23.910Z,53.65
2023-05-06T04:11:52.140Z,50.40
2023-05-06T04:14:21.635Z,56.03
2023-05-06T04:16:48.854Z,49.60
2023-05-06T04:19:18.385Z,51.92
2023-05-06T04:21:46.171Z,43.83
2023-05-06T04:24:15.948Z,48.83
2023-05-06T04:26:42.640Z,47.10
2023-05-06T04:29:09.332Z,50.35
2023-05-06T04:31:43.043Z,49.17
2023-05-06T04:34:12.365Z,46.88
2023-05-06T04:36:40.584Z,46.05
2023-05-06T04:39:26.188Z,47.55
2023-05-06T04:41:53.097Z,41.70
2023-05-06T04:44:27.177Z,42.95
2023-05-06T04:46:54.195Z,41.33
2023-05-06T04:49:23.760Z,42.05
2023-05-06T04:51:51.126Z,43.53
2023-05-06T04:54:18.327Z,39.33
2023-05-06T04:56:45.627Z,41.35
2023-05-06T04:59:14.081Z,51.60
2023-05-06T05:01:42.160Z,43.90
2023-05-06T05:04:10.187Z,38.55
2023-05-06T05:06:36.612Z,45.10
2023-05-06T05:09:03.518Z,40.55
2023-05-06T05:11:30.137Z,43.28
2023-05-06T05:13:59.554Z,38.03
2023-05-06T05:16:28.741Z,38.53
2023-05-06T05:18:55.719Z,38.38
2023-05-06T05:21:27.625Z,37.20
2023-05-06T05:23:55.208Z,36.63
2023-05-06T05:26:22.157Z,33.55
2023-05-06T05:28:51.626Z,35.58
2023-05-06T05:31:20.666Z,35.85
2023-05-06T05:33:47.468Z,33.58
2023-05-06T05:36:16.399Z,32.63
2023-05-06T05:38:45.371Z,31.23
2023-05-06T05:41:16.786Z,34.25
2023-05-06T05:43:44.671Z,34.63
2023-05-06T05:46:11.473Z,29.23
2023-05-06T05:48:39.839Z,30.92
2023-05-06T05:51:10.067Z,29.27
2023-05-06T05:53:36.729Z,33.65
2023-05-06T05:56:04.676Z,30.30
2023-05-06T05:58:32.077Z,31.27
2023-05-06T06:00:59.578Z,29.40
2023-05-06T06:03:26.670Z,26.90
2023-05-06T06:05:55.294Z,18.52
2023-05-06T06:08:26.404Z,23.63
2023-05-06T06:10:53.090Z,21.50
2023-05-06T06:13:24.803Z,22.90
2023-05-06T06:15:52.580Z,22.55
2023-05-06T06:18:20.283Z,22.83
2023-05-06T06:20:47.388Z,22.23
2023-05-06T06:23:14.133Z,21.30
2023-05-06T06:25:40.806Z,21.13
2023-05-06T06:28:07.533Z,21.40
2023-05-06T06:30:34.096Z,20.15
2023-05-06T06:33:01.428Z,21.23
2023-05-06T06:35:31.509Z,15.40
2023-05-06T06:37:58.140Z,17.13
2023-05-06T06:40:24.545Z,20.52
2023-05-06T06:42:51.220Z,15.15
2023-05-06T06:45:38.136Z,15.02
2023-05-06T06:48:07.878Z,15.15
2023-05-06T06:50:34.292Z,15.20
2023-05-06T06:53:01.690Z,15.82
2023-05-06T06:55:28.756Z,16.27
2023-05-06T06:57:58.040Z,15.80
2023-05-06T07:00:24.717Z,19.90
2023-05-06T07:02:51.271Z,17.83
2023-05-06T07:05:20.469Z,20.55
2023-05-06T07:07:55.602Z,17.65
2023-05-06T07:10:22.638Z,20.33
2023-05-06T07:12:49.146Z,20.73
2023-05-06T07:15:17.942Z,15.00
2023-05-06T07:17:44.575Z,17.10
2023-05-06T07:20:11.518Z,19.35
2023-05-06T07:22:38.018Z,19.67
2023-05-06T07:25:04.622Z,18.52
2023-05-06T07:27:31.508Z,20.10
2023-05-06T07:29:58.172Z,20.05
2023-05-06T07:32:24.761Z,23.25
2023-05-06T07:34:51.319Z,25.20
2023-05-06T07:37:17.805Z,18.35
2023-05-06T07:39:44.328Z,19.02
2023-05-06T07:42:13.022Z,21.45
2023-05-06T07:44:39.874Z,20.60
2023-05-06T07:47:06.531Z,19.83
2023-05-06T07:49:37.085Z,23.40
2023-05-06T07:52:04.192Z,20.83
2023-05-06T07:54:31.802Z,24.38
2023-05-06T07:56:58.439Z,26.55
2023-05-06T07:59:25.015Z,31.73
2023-05-06T08:01:51.579Z,32.17
2023-05-06T08:04:18.211Z,37.28
2023-05-06T08:06:44.684Z,33.83
2023-05-06T08:09:16.976Z,36.83
2023-05-06T08:11:49.831Z,39.10
2023-05-06T08:14:16.400Z,40.72
2023-05-06T08:16:42.950Z,44.08
2023-05-06T08:19:09.529Z,41.65
2023-05-06T08:21:36.028Z,38.75
2023-05-06T08:24:03.410Z,45.38
2023-05-06T08:26:29.906Z,36.67
2023-05-06T08:28:57.689Z,31.50
2023-05-06T08:31:24.183Z,32.67
2023-05-06T08:33:53.880Z,31.30
2023-05-06T08:36:21.968Z,27.98
2023-05-06T08:38:50.445Z,30.05
2023-05-06T08:41:21.552Z,28.02
2023-05-06T08:43:48.957Z,28.08
2023-05-06T08:46:15.764Z,26.67
2023-05-06T08:48:42.796Z,32.25
2023-05-06T08:51:09.730Z,31.42
2023-05-06T08:53:36.572Z,28.55
2023-05-06T08:56:04.282Z,33.88
2023-05-06T08:58:33.290Z,33.97
2023-05-06T09:01:00.400Z,39.50
2023-05-06T09:03:27.181Z,37.08
2023-05-06T09:05:54.232Z,37.55
2023-05-06T09:08:21.068Z,39.35
2023-05-06T09:10:47.659Z,38.03
2023-05-06T09:13:15.253Z,36.47
2023-05-06T09:15:42.587Z,37.97
2023-05-06T09:18:09.476Z,37.10
2023-05-06T09:20:40.166Z,34.83
2023-05-06T09:23:08.406Z,33.00
2023-05-06T09:25:35.746Z,32.22
2023-05-06T09:28:05.792Z,27.10
2023-05-06T09:30:32.297Z,27.15
2023-05-06T09:32:59.284Z,23.52
2023-05-06T09:35:30.430Z,24.30
2023-05-06T09:37:57.168Z,20.38
2023-05-06T09:40:24.068Z,27.27
2023-05-06T09:42:51.643Z,21.52
2023-05-06T09:45:18.340Z,19.60
2023-05-06T09:47:51.818Z,17.70
2023-05-06T09:50:20.576Z,15.73
2023-05-06T09:52:48.057Z,16.38
2023-05-06T09:55:22.816Z,17.50
2023-05-06T09:57:49.778Z,18.30
2023-05-06T10:00:17.118Z,16.10
2023-05-06T10:02:44.787Z,15.50
2023-05-06T10:05:12.876Z,14.10
2023-05-06T10:07:40.737Z,14.52
2023-05-06T10:10:08.870Z,15.73
2023-05-06T10:12:38.896Z,15.27
2023-05-06T10:15:05.771Z,14.07
2023-05-06T10:17:32.765Z,14.60
2023-05-06T10:20:03.421Z,14.23
2023-05-06T10:22:41.853Z,10.38
2023-05-06T10:25:20.995Z,14.50
2023-05-06T10:27:47.892Z,12.93
2023-05-06T10:30:17.139Z,13.57
2023-05-06T10:32:45.000Z,11.32
2023-05-06T10:35:30.063Z,10.95
2023-05-06T10:37:57.336Z,12.35
2023-05-06T10:40:28.058Z,14.20
2023-05-06T10:43:17.563Z,12.40
2023-05-06T10:46:02.891Z,13.38
2023-05-06T10:48:30.039Z,14.13
2023-05-06T10:51:16.372Z,12.38
2023-05-06T10:54:02.618Z,12.30
2023-05-06T10:56:36.880Z,15.07
2023-05-06T10:59:10.190Z,12.18
2023-05-06T11:01:37.712Z,13.23
2023-05-06T11:04:18.902Z,12.68
2023-05-06T11:06:52.364Z,13.35
2023-05-06T11:09:19.747Z,15.40
2023-05-06T11:11:47.218Z,12.98
2023-05-06T11:14:14.210Z,16.13
2023-05-06T11:16:47.364Z,10.93
2023-05-06T11:19:43.195Z,12.63
2023-05-06T11:22:32.916Z,12.07
2023-05-06T11:24:59.431Z,9.13
2023-05-06T11:27:27.588Z,8.70
2023-05-06T11:29:54.083Z,8.88
2023-05-06T11:32:25.110Z,9.18
2023-05-06T11:34:54.542Z,7.07
2023-05-06T11:37:29.064Z,10.10
2023-05-06T11:39:58.366Z,8.75
2023-05-06T11:42:26.359Z,11.10
2023-05-06T11:47:36.493Z,7.20
2023-05-06T11:50:07.367Z,8.25
2023-05-06T11:52:35.298Z,5.38
2023-05-06T11:55:02.278Z,6.13
2023-05-06T11:57:29.786Z,7.88
2023-05-06T11:59:56.270Z,6.63
2023-05-06T12:02:22.919Z,4.65
2023-05-06T12:04:53.294Z,5.03
2023-05-06T12:07:19.950Z,5.75
2023-05-06T12:09:47.511Z,8.00
2023-05-06T12:12:18.537Z,10.55
2023-05-06T12:14:46.142Z,8.70
2023-05-06T12:17:12.991Z,11.50
2023-05-06T12:19:39.744Z,7.43
2023-05-06T12:22:15.236Z,7.93
2023-05-06T12:24:41.877Z,10.02
2023-05-06T12:27:10.462Z,12.95
2023-05-06T12:29:36.957Z,10.73
2023-05-06T12:32:10.515Z,8.80
2023-05-06T12:34:38.540Z,10.30
2023-05-06T12:37:05.522Z,7.97
2023-05-06T12:39:39.094Z,8.23
2023-05-06T12:42:06.129Z,10.05
2023-05-06T12:44:36.978Z,7.72
2023-05-06T12:47:04.878Z,10.98
2023-05-06T12:49:54.183Z,12.32
2023-05-06T12:52:24.212Z,9.93
2023-05-06T12:54:52.560Z,13.70
2023-05-06T12:57:19.279Z,10.00
2023-05-06T12:59:46.407Z,9.23
2023-05-06T13:02:13.263Z,8.38
2023-05-06T13:04:40.638Z,8.35
2023-05-06T13:07:07.264Z,7.38
2023-05-06T13:09:36.194Z,8.05
2023-05-06T13:12:04.679Z,6.57
2023-05-06T13:14:31.152Z,6.72
2023-05-06T13:17:02.566Z,8.98
2023-05-06T13:19:32.742Z,6.32
2023-05-06T13:22:00.522Z,7.88
2023-05-06T13:24:27.241Z,10.23
2023-05-06T13:26:57.497Z,11.40
2023-05-06T13:29:24.432Z,7.60
2023-05-06T13:31:51.705Z,6.72
2023-05-06T13:34:18.555Z,8.48
2023-05-06T13:36:45.062Z,8.07
2023-05-06T13:39:11.593Z,7.97
2023-05-06T13:41:38.302Z,6.97
2023-05-06T13:44:06.323Z,8.93
2023-05-06T13:46:32.812Z,4.93
2023-05-06T13:48:59.392Z,4.53
2023-05-06T13:51:30.720Z,4.68
2023-05-06T13:53:57.417Z,5.30
2023-05-06T13:56:24.030Z,5.90
2023-05-06T13:58:50.604Z,6.32
2023-05-06T14:01:19.685Z,5.68
2023-05-06T14:03:46.682Z,10.05
2023-05-06T14:06:13.167Z,4.40
2023-05-06T14:08:39.681Z,4.07
2023-05-06T14:11:06.341Z,6.53
2023-05-06T14:13:36.226Z,2.88
2023-05-06T14:16:02.899Z,2.42
2023-05-06T14:18:29.570Z,5.03
2023-05-06T14:20:56.424Z,3.40
2023-05-06T14:23:22.909Z,3.40
2023-05-06T14:25:49.563Z,3.40
2023-05-06T14:28:16.171Z,4.18
2023-05-06T14:30:42.626Z,4.65
2023-05-06T14:33:09.582Z,2.92
2023-05-06T14:35:39.530Z,4.93
2023-05-06T14:38:05.975Z,3.15
2023-05-06T14:40:32.526Z,3.80
2023-05-06T14:42:59.138Z,7.20
2023-05-06T14:45:25.650Z,3.60
2023-05-06T14:47:52.391Z,5.07
2023-05-06T14:50:18.887Z,11.27
2023-05-06T14:52:45.358Z,6.15
2023-05-06T14:55:12.544Z,5.43
2023-05-06T14:57:39.368Z,6.65
2023-05-06T15:00:10.220Z,10.05
2023-05-06T15:02:38.258Z,6.60
2023-05-06T15:05:08.947Z,9.85
2023-05-06T15:07:36.074Z,7.80
2023-05-06T15:10:02.721Z,9.07
2023-05-06T15:12:29.200Z,8.82
2023-05-06T15:14:55.737Z,6.95
2023-05-06T15:17:22.290Z,6.35
2023-05-06T15:19:51.941Z,7.95
2023-05-06T15:22:21.333Z,6.45
2023-05-06T15:24:47.744Z,6.25
2023-05-06T15:27:15.180Z,6.38
2023-05-06T15:29:41.704Z,7.38
2023-05-06T15:32:08.407Z,8.05
2023-05-06T15:34:35.138Z,8.57
2023-05-06T15:37:01.813Z,8.38
2023-05-06T15:39:28.539Z,6.47
2023-05-06T15:41:55.133Z,7.22
2023-05-06T15:44:21.606Z,7.20
2023-05-06T15:46:48.252Z,7.50
2023-05-06T15:49:45.355Z,9.25
2023-05-06T15:52:01.680Z,11.32
2023-05-06T15:54:28.855Z,7.30
2023-05-06T15:56:56.366Z,10.43
2023-05-06T15:59:23.034Z,23.73
2023-05-06T16:04:19.110Z,9.82
2023-05-06T16:06:45.740Z,12.88
2023-05-06T16:09:12.285Z,16.17
2023-05-06T16:11:39.100Z,10.98
2023-05-06T16:14:05.713Z,9.05
2023-05-06T16:16:32.234Z,12.90
2023-05-06T16:19:01.738Z,10.95
2023-05-06T16:21:28.670Z,12.95
2023-05-06T16:23:55.197Z,13.98
2023-05-06T16:26:22.144Z,12.80
2023-05-06T16:28:48.561Z,12.82
2023-05-06T16:31:15.186Z,18.67
2023-05-06T16:33:41.774Z,18.75
2023-05-06T16:36:08.530Z,21.50
2023-05-06T16:38:35.045Z,20.90
2023-05-06T16:41:01.552Z,18.58
2023-05-06T16:43:28.131Z,21.98
2023-05-06T16:45:54.741Z,20.55
2023-05-06T16:48:21.255Z,20.33
2023-05-06T16:50:47.980Z,19.55
2023-05-06T16:53:15.816Z,22.60
2023-05-06T16:55:45.803Z,20.70
2023-05-06T16:58:12.411Z,19.05
2023-05-06T17:00:39.078Z,25.70
2023-05-06T17:03:05.875Z,24.63
2023-05-06T17:05:32.552Z,28.92
2023-05-06T17:07:59.304Z,26.15
2023-05-06T17:10:29.257Z,26.48
2023-05-06T17:12:57.319Z,26.10
2023-05-06T17:15:24.449Z,24.30
2023-05-06T17:17:51.213Z,26.95
2023-05-06T17:20:19.725Z,27.48
2023-05-06T17:22:46.388Z,27.13
2023-05-06T17:25:13.453Z,27.83
2023-05-06T17:27:40.679Z,31.27
2023-05-06T17:30:09.832Z,28.88
2023-05-06T17:32:36.688Z,35.88
2023-05-06T17:35:03.367Z,30.77
2023-05-06T17:37:30.953Z,29.92
2023-05-06T17:39:57.539Z,33.88
2023-05-06T17:42:24.107Z,30.70
2023-05-06T17:44:51.077Z,33.13
2023-05-06T17:47:17.768Z,36.65
2023-05-06T17:49:44.353Z,28.60
2023-05-06T17:52:10.951Z,29.17
2023-05-06T17:54:37.965Z,34.83
2023-05-06T17:57:04.636Z,33.13
2023-05-06T17:59:31.172Z,30.23
2023-05-06T18:01:57.812Z,32.15
2023-05-06T18:04:24.493Z,34.15
2023-05-06T18:06:51.157Z,33.72
2023-05-06T18:09:17.760Z,31.63
2023-05-06T18:11:44.304Z,37.15
2023-05-06T18:14:11.489Z,34.97
2023-05-06T18:16:38.168Z,42.42
2023-05-06T18:19:05.244Z,33.80
2023-05-06T18:21:35.938Z,33.38
2023-05-06T18:24:15.421Z,46.22
2023-05-06T18:26:44.525Z,42.90
2023-05-06T18:29:12.646Z,41.80
2023-05-06T18:31:39.574Z,43.75
2023-05-06T18:34:06.422Z,43.75
2023-05-06T18:36:34.861Z,42.95
2023-05-06T18:39:04.676Z,44.83
2023-05-06T18:41:31.240Z,43.80
2023-05-06T18:43:57.894Z,38.85
2023-05-06T18:46:24.631Z,40.22
2023-05-06T18:48:51.423Z,45.45
2023-05-06T18:51:18.125Z,43.55
2023-05-06T18:53:44.952Z,42.92
2023-05-06T18:56:11.562Z,45.10
2023-05-06T18:58:39.064Z,48.55
2023-05-06T19:01:09.623Z,44.30
2023-05-06T19:03:37.143Z,48.13
2023-05-06T19:06:04.869Z,48.47
2023-05-06T19:08:31.799Z,42.78
2023-05-06T19:11:01.664Z,45.88
2023-05-06T19:13:28.238Z,49.00
2023-05-06T19:15:54.870Z,42.20
2023-05-06T19:18:21.415Z,45.10
2023-05-06T19:20:48.192Z,51.15
2023-05-06T19:23:14.960Z,48.42
2023-05-06T19:25:41.487Z,47.05
2023-05-06T19:28:09.474Z,49.00
2023-05-06T19:30:36.400Z,51.42
2023-05-06T19:33:03.471Z,49.72
2023-05-06T19:35:30.248Z,47.47
2023-05-06T19:37:56.948Z,54.35
2023-05-06T19:40:23.743Z,51.83
2023-05-06T19:42:50.552Z,50.70
2023-05-06T19:45:19.157Z,50.65
2023-05-06T19:47:46.158Z,43.60
2023-05-06T19:50:13.127Z,46.53
2023-05-06T19:52:40.179Z,46.95
2023-05-06T19:55:06.910Z,49.22
2023-05-06T19:57:33.926Z,41.67
2023-05-06T20:00:05.361Z,45.75
2023-05-06T20:02:33.349Z,42.20
2023-05-06T20:05:00.574Z,46.92
2023-05-06T20:07:27.711Z,40.70
2023-05-06T20:09:56.015Z,40.38
2023-05-06T20:12:30.150Z,41.33
2023-05-06T20:14:56.791Z,37.80
2023-05-06T20:17:23.668Z,41.72
2023-05-06T20:19:50.682Z,40.95
2023-05-06T20:22:17.474Z,38.88
2023-05-06T20:24:44.331Z,38.40
2023-05-06T20:27:10.970Z,41.28
2023-05-06T20:29:39.720Z,41.67
2023-05-06T20:32:06.869Z,41.60
2023-05-06T20:34:34.027Z,33.75
2023-05-06T20:37:01.391Z,34.65
2023-05-06T20:39:27.987Z,31.77
2023-05-06T20:41:54.657Z,31.15
2023-05-06T20:44:21.313Z,32.40
2023-05-06T20:46:47.791Z,59.15
2023-05-06T20:49:14.297Z,32.50
2023-05-06T20:51:40.929Z,31.17
2023-05-06T20:54:07.354Z,38.17
2023-05-06T20:56:33.968Z,33.55
2023-05-06T20:59:00.457Z,34.70
2023-05-06T21:01:27.294Z,36.25
2023-05-06T21:03:54.004Z,35.22
2023-05-06T21:06:20.571Z,38.38
2023-05-06T21:08:47.153Z,39.55
2023-05-06T21:11:13.832Z,39.75
2023-05-06T21:13:40.774Z,43.05
2023-05-06T21:16:07.604Z,37.67
2023-05-06T21:18:34.319Z,45.25
2023-05-06T21:21:01.058Z,47.95
2023-05-06T21:23:27.586Z,40.45
2023-05-06T21:25:54.225Z,42.28
2023-05-06T21:28:20.787Z,44.47
2023-05-06T21:30:47.247Z,49.33
2023-05-06T21:33:14.150Z,47.00
2023-05-06T21:35:40.676Z,42.38
2023-05-06T21:38:07.225Z,41.15
2023-05-06T21:40:33.758Z,39.15
2023-05-06T21:43:00.293Z,32.03
2023-05-06T21:45:26.830Z,37.80
2023-05-06T21:47:53.576Z,39.50
2023-05-06T21:50:20.328Z,37.00
2023-05-06T21:52:46.894Z,39.45
2023-05-06T21:55:13.637Z,40.67
2023-05-06T21:57:40.470Z,40.05
2023-05-06T22:00:12.285Z,41.28
2023-05-06T22:02:40.005Z,37.15
2023-05-06T22:05:07.430Z,47.30
2023-05-06T22:07:34.077Z,43.83
2023-05-06T22:10:00.624Z,39.05
2023-05-06T22:12:27.524Z,39.55
2023-05-06T22:14:54.067Z,41.90
2023-05-06T22:17:20.569Z,42.35
2023-05-06T22:19:46.965Z,46.42
2023-05-06T22:22:13.957Z,42.08
2023-05-06T22:24:40.537Z,43.05
2023-05-06T22:27:07.013Z,41.03
2023-05-06T22:29:35.119Z,42.50
2023-05-06T22:32:01.927Z,43.35
2023-05-06T22:34:28.604Z,36.80
2023-05-06T22:36:55.329Z,40.67
2023-05-06T22:39:22.669Z,38.55
2023-05-06T22:41:50.809Z,40.97
2023-05-06T22:44:17.467Z,36.60
2023-05-06T22:46:43.945Z,39.25
2023-05-06T22:49:10.502Z,36.88
2023-05-06T22:51:38.599Z,36.70
2023-05-06T22:54:05.166Z,37.67
2023-05-06T22:56:31.727Z,38.03
2023-05-06T22:58:58.223Z,34.83
2023-05-06T23:01:26.189Z,41.28
2023-05-06T23:03:52.996Z,35.63
2023-05-06T23:06:19.533Z,37.85
2023-05-06T23:08:45.982Z,40.03
2023-05-06T23:11:12.466Z,34.30
2023-05-06T23:13:39.038Z,36.55
2023-05-06T23:16:07.688Z,34.45
2023-05-06T23:18:35.105Z,34.63
2023-05-06T23:21:01.742Z,34.42
2023-05-06T23:23:31.381Z,33.10
2023-05-06T23:25:58.179Z,33.35
2023-05-06T23:28:24.659Z,28.73
2023-05-06T23:30:51.148Z,31.85
2023-05-06T23:33:17.729Z,28.17
2023-05-06T23:35:44.184Z,32.95
2023-05-06T23:38:10.858Z,26.83
2023-05-06T23:40:37.409Z,26.33
2023-05-06T23:43:04.020Z,26.60
2023-05-06T23:45:30.575Z,24.48
2023-05-06T23:48:05.870Z,25.42
2023-05-06T23:50:32.496Z,25.23
2023-05-06T23:52:58.917Z,24.40
2023-05-06T23:55:28.227Z,26.77
2023-05-06T23:57:54.702Z,18.25
